sensor_id;sensor_type;location;lat;lon;timestamp;temperature;humidity
22779;DHT22;11556;51.194;3.800;2023-05-07T00:01:45;15.90;99.90
22779;DHT22;11556;51.194;3.800;2023-05-07T00:04:11;15.90;99.90
22779;DHT22;11556;51.194;3.800;2023-05-07T00:06:36;16.00;99.90
22779;DHT22;11556;51.194;3.800;2023-05-07T00:09:02;16.20;99.90
22779;DHT22;11556;51.194;3.800;2023-05-07T00:11:29;16.40;99.90
22779;DHT22;11556;51.194;3.800;2023-05-07T00:13:55;16.60;99.90
22779;DHT22;11556;51.194;3.800;2023-05-07T00:16:20;16.60;99.90
22779;DHT22;11556;51.194;3.800;2023-05-07T00:18:46;16.70;99.90
22779;DHT22;11556;51.194;3.800;2023-05-07T00:21:12;16.60;99.90
22779;DHT22;11556;51.194;3.800;2023-05-07T00:23:37;16.60;99.90
22779;DHT22;11556;51.194;3.800;2023-05-07T00:26:03;16.50;99.90
22779;DHT22;11556;51.194;3.800;2023-05-07T00:28:29;16.30;99.90
22779;DHT22;11556;51.194;3.800;2023-05-07T00:30:55;16.20;99.90
22779;DHT22;11556;51.194;3.800;2023-05-07T00:33:21;16.20;99.90
22779;DHT22;11556;51.194;3.800;2023-05-07T00:35:48;16.20;99.90
22779;DHT22;11556;51.194;3.800;2023-05-07T00:38:13;16.30;99.90
22779;DHT22;11556;51.194;3.800;2023-05-07T00:40:39;16.40;99.90
22779;DHT22;11556;51.194;3.800;2023-05-07T00:43:05;16.30;99.90
22779;DHT22;11556;51.194;3.800;2023-05-07T00:45:31;16.30;99.90
22779;DHT22;11556;51.194;3.800;2023-05-07T00:47:59;16.40;99.90
22779;DHT22;11556;51.194;3.800;2023-05-07T00:50:26;16.50;99.90
22779;DHT22;11556;51.194;3.800;2023-05-07T00:52:52;16.50;99.90
22779;DHT22;11556;51.194;3.800;2023-05-07T00:55:18;16.60;99.90
22779;DHT22;11556;51.194;3.800;2023-05-07T00:57:44;16.70;99.90
22779;DHT22;11556;51.194;3.800;2023-05-07T01:00:11;16.70;99.90
22779;DHT22;11556;51.194;3.800;2023-05-07T01:02:41;16.70;99.90
22779;DHT22;11556;51.194;3.800;2023-05-07T01:05:09;16.80;99.90
22779;DHT22;11556;51.194;3.800;2023-05-07T01:07:35;16.70;99.90
22779;DHT22;11556;51.194;3.800;2023-05-07T01:10:03;16.70;99.90
22779;DHT22;11556;51.194;3.800;2023-05-07T01:12:29;16.70;99.90
22779;DHT22;11556;51.194;3.800;2023-05-07T01:14:56;16.60;99.90
22779;DHT22;11556;51.194;3.800;2023-05-07T01:17:23;16.60;99.90
22779;DHT22;11556;51.194;3.800;2023-05-07T01:19:48;16.60;99.90
22779;DHT22;11556;51.194;3.800;2023-05-07T01:22:16;16.50;99.90
22779;DHT22;11556;51.194;3.800;2023-05-07T01:24:45;16.50;99.90
22779;DHT22;11556;51.194;3.800;2023-05-07T01:27:11;16.50;99.90
22779;DHT22;11556;51.194;3.800;2023-05-07T01:29:37;16.70;99.90
22779;DHT22;11556;51.194;3.800;2023-05-07T01:32:02;16.60;99.90
22779;DHT22;11556;51.194;3.800;2023-05-07T01:34:31;16.50;99.90
22779;DHT22;11556;51.194;3.800;2023-05-07T01:36:58;16.50;99.90
22779;DHT22;11556;51.194;3.800;2023-05-07T01:39:26;16.50;99.90
22779;DHT22;11556;51.194;3.800;2023-05-07T01:41:56;16.60;99.90
22779;DHT22;11556;51.194;3.800;2023-05-07T01:44:22;16.60;99.90
22779;DHT22;11556;51.194;3.800;2023-05-07T01:46:49;16.60;99.90
22779;DHT22;11556;51.194;3.800;2023-05-07T01:49:15;16.60;99.90
22779;DHT22;11556;51.194;3.800;2023-05-07T01:51:42;16.60;99.90
22779;DHT22;11556;51.194;3.800;2023-05-07T01:54:08;16.40;99.90
22779;DHT22;11556;51.194;3.800;2023-05-07T01:56:33;16.30;99.90
22779;DHT22;11556;51.194;3.800;2023-05-07T01:58:59;16.30;99.90
22779;DHT22;11556;51.194;3.800;2023-05-07T02:01:25;16.40;99.90
22779;DHT22;11556;51.194;3.800;2023-05-07T02:03:51;16.20;99.90
22779;DHT22;11556;51.194;3.800;2023-05-07T02:06:17;16.10;99.90
22779;DHT22;11556;51.194;3.800;2023-05-07T02:08:43;16.10;99.90
22779;DHT22;11556;51.194;3.800;2023-05-07T02:11:08;16.00;99.90
22779;DHT22;11556;51.194;3.800;2023-05-07T02:13:34;16.00;99.90
22779;DHT22;11556;51.194;3.800;2023-05-07T02:16:00;16.10;99.90
22779;DHT22;11556;51.194;3.800;2023-05-07T02:18:26;16.10;99.90
22779;DHT22;11556;51.194;3.800;2023-05-07T02:20:52;16.10;99.90
22779;DHT22;11556;51.194;3.800;2023-05-07T02:23:17;16.10;99.90
22779;DHT22;11556;51.194;3.800;2023-05-07T02:25:43;16.10;99.90
22779;DHT22;11556;51.194;3.800;2023-05-07T02:28:09;16.20;99.90
22779;DHT22;11556;51.194;3.800;2023-05-07T02:30:36;16.20;99.90
22779;DHT22;11556;51.194;3.800;2023-05-07T02:33:02;16.20;99.90
22779;DHT22;11556;51.194;3.800;2023-05-07T02:35:28;16.30;99.90
22779;DHT22;11556;51.194;3.800;2023-05-07T02:37:53;16.30;99.90
22779;DHT22;11556;51.194;3.800;2023-05-07T02:40:19;16.30;99.90
22779;DHT22;11556;51.194;3.800;2023-05-07T02:42:46;16.30;99.90
22779;DHT22;11556;51.194;3.800;2023-05-07T02:45:12;16.20;99.90
22779;DHT22;11556;51.194;3.800;2023-05-07T02:47:37;16.00;99.90
22779;DHT22;11556;51.194;3.800;2023-05-07T02:50:04;16.00;99.90
22779;DHT22;11556;51.194;3.800;2023-05-07T02:52:29;15.90;99.90
22779;DHT22;11556;51.194;3.800;2023-05-07T02:54:55;16.00;99.90
22779;DHT22;11556;51.194;3.800;2023-05-07T02:57:21;16.10;99.90
22779;DHT22;11556;51.194;3.800;2023-05-07T02:59:46;16.20;99.90
22779;DHT22;11556;51.194;3.800;2023-05-07T03:02:12;16.20;99.90
22779;DHT22;11556;51.194;3.800;2023-05-07T03:04:39;16.20;99.90
22779;DHT22;11556;51.194;3.800;2023-05-07T03:07:05;16.10;99.90
22779;DHT22;11556;51.194;3.800;2023-05-07T03:09:30;16.10;99.90
22779;DHT22;11556;51.194;3.800;2023-05-07T03:11:56;16.10;99.90
22779;DHT22;11556;51.194;3.800;2023-05-07T03:14:22;16.10;99.90
22779;DHT22;11556;51.194;3.800;2023-05-07T03:16:49;16.20;99.90
22779;DHT22;11556;51.194;3.800;2023-05-07T03:19:15;16.10;99.90
22779;DHT22;11556;51.194;3.800;2023-05-07T03:21:40;16.00;99.90
22779;DHT22;11556;51.194;3.800;2023-05-07T03:24:06;16.00;99.90
22779;DHT22;11556;51.194;3.800;2023-05-07T03:26:32;15.90;99.90
22779;DHT22;11556;51.194;3.800;2023-05-07T03:28:58;15.90;99.90
22779;DHT22;11556;51.194;3.800;2023-05-07T03:31:23;15.90;99.90
22779;DHT22;11556;51.194;3.800;2023-05-07T03:33:53;15.90;99.90
22779;DHT22;11556;51.194;3.800;2023-05-07T03:36:19;16.10;99.90
22779;DHT22;11556;51.194;3.800;2023-05-07T03:38:45;16.10;99.90
22779;DHT22;11556;51.194;3.800;2023-05-07T03:41:11;16.10;99.90
22779;DHT22;11556;51.194;3.800;2023-05-07T03:43:37;16.10;99.90
22779;DHT22;11556;51.194;3.800;2023-05-07T03:46:03;15.80;99.90
22779;DHT22;11556;51.194;3.800;2023-05-07T03:48:28;15.60;99.90
22779;DHT22;11556;51.194;3.800;2023-05-07T03:50:55;15.60;99.90
22779;DHT22;11556;51.194;3.800;2023-05-07T03:53:21;15.80;99.90
22779;DHT22;11556;51.194;3.800;2023-05-07T03:55:49;15.90;99.90
22779;DHT22;11556;51.194;3.800;2023-05-07T03:58:16;16.00;99.90
22779;DHT22;11556;51.194;3.800;2023-05-07T04:00:41;16.10;99.90
22779;DHT22;11556;51.194;3.800;2023-05-07T04:03:07;16.10;99.90
22779;DHT22;11556;51.194;3.800;2023-05-07T04:05:33;16.20;99.90
22779;DHT22;11556;51.194;3.800;2023-05-07T04:07:59;16.20;99.90
22779;DHT22;11556;51.194;3.800;2023-05-07T04:10:25;16.30;99.90
22779;DHT22;11556;51.194;3.800;2023-05-07T04:12:51;16.30;99.90
22779;DHT22;11556;51.194;3.800;2023-05-07T04:15:17;16.30;99.90
22779;DHT22;11556;51.194;3.800;2023-05-07T04:17:43;16.30;99.90
22779;DHT22;11556;51.194;3.800;2023-05-07T04:20:15;16.20;99.90
22779;DHT22;11556;51.194;3.800;2023-05-07T04:22:41;16.30;99.90
22779;DHT22;11556;51.194;3.800;2023-05-07T04:25:08;16.30;99.90
22779;DHT22;11556;51.194;3.800;2023-05-07T04:27:35;16.40;99.90
22779;DHT22;11556;51.194;3.800;2023-05-07T04:30:01;16.40;99.90
22779;DHT22;11556;51.194;3.800;2023-05-07T04:32:28;16.50;99.90
22779;DHT22;11556;51.194;3.800;2023-05-07T04:34:55;16.50;99.90
22779;DHT22;11556;51.194;3.800;2023-05-07T04:37:21;16.40;99.90
22779;DHT22;11556;51.194;3.800;2023-05-07T04:39:47;16.40;99.90
22779;DHT22;11556;51.194;3.800;2023-05-07T04:42:16;16.50;99.90
22779;DHT22;11556;51.194;3.800;2023-05-07T04:44:42;16.70;99.90
22779;DHT22;11556;51.194;3.800;2023-05-07T04:47:08;16.80;99.90
22779;DHT22;11556;51.194;3.800;2023-05-07T04:49:34;16.80;99.90
22779;DHT22;11556;51.194;3.800;2023-05-07T04:52:00;16.70;99.90
22779;DHT22;11556;51.194;3.800;2023-05-07T04:54:26;16.70;99.90
22779;DHT22;11556;51.194;3.800;2023-05-07T04:56:52;16.70;99.90
22779;DHT22;11556;51.194;3.800;2023-05-07T04:59:18;16.60;99.90
22779;DHT22;11556;51.194;3.800;2023-05-07T05:01:44;16.60;99.90
22779;DHT22;11556;51.194;3.800;2023-05-07T05:04:10;16.50;99.90
22779;DHT22;11556;51.194;3.800;2023-05-07T05:06:35;16.60;99.90
22779;DHT22;11556;51.194;3.800;2023-05-07T05:09:01;16.50;99.90
22779;DHT22;11556;51.194;3.800;2023-05-07T05:11:27;16.20;99.90
22779;DHT22;11556;51.194;3.800;2023-05-07T05:13:52;16.00;99.90
22779;DHT22;11556;51.194;3.800;2023-05-07T05:16:18;16.10;99.90
22779;DHT22;11556;51.194;3.800;2023-05-07T05:18:44;16.20;99.90
22779;DHT22;11556;51.194;3.800;2023-05-07T05:21:10;16.40;99.90
22779;DHT22;11556;51.194;3.800;2023-05-07T05:23:35;16.20;99.90
22779;DHT22;11556;51.194;3.800;2023-05-07T05:26:01;16.10;99.90
22779;DHT22;11556;51.194;3.800;2023-05-07T05:28:27;15.90;99.90
22779;DHT22;11556;51.194;3.800;2023-05-07T05:30:53;15.60;99.90
22779;DHT22;11556;51.194;3.800;2023-05-07T05:33:19;15.50;99.90
22779;DHT22;11556;51.194;3.800;2023-05-07T05:35:45;15.70;99.90
22779;DHT22;11556;51.194;3.800;2023-05-07T05:38:10;15.90;99.90
22779;DHT22;11556;51.194;3.800;2023-05-07T05:40:36;16.00;99.90
22779;DHT22;11556;51.194;3.800;2023-05-07T05:43:02;15.80;99.90
22779;DHT22;11556;51.194;3.800;2023-05-07T05:45:27;15.80;99.90
22779;DHT22;11556;51.194;3.800;2023-05-07T05:47:53;16.00;99.90
22779;DHT22;11556;51.194;3.800;2023-05-07T05:50:21;16.20;99.90
22779;DHT22;11556;51.194;3.800;2023-05-07T05:52:46;16.40;99.90
22779;DHT22;11556;51.194;3.800;2023-05-07T05:55:12;16.50;99.90
22779;DHT22;11556;51.194;3.800;2023-05-07T05:57:38;16.60;99.90
22779;DHT22;11556;51.194;3.800;2023-05-07T06:00:04;16.70;99.90
22779;DHT22;11556;51.194;3.800;2023-05-07T06:02:30;16.80;99.90
22779;DHT22;11556;51.194;3.800;2023-05-07T06:04:56;16.90;99.90
22779;DHT22;11556;51.194;3.800;2023-05-07T06:07:21;16.80;99.90
22779;DHT22;11556;51.194;3.800;2023-05-07T06:09:47;16.70;99.90
22779;DHT22;11556;51.194;3.800;2023-05-07T06:12:12;16.80;99.90
22779;DHT22;11556;51.194;3.800;2023-05-07T06:14:38;17.00;99.90
22779;DHT22;11556;51.194;3.800;2023-05-07T06:17:04;17.00;99.90
22779;DHT22;11556;51.194;3.800;2023-05-07T06:19:30;17.10;99.90
22779;DHT22;11556;51.194;3.800;2023-05-07T06:21:56;17.10;99.90
22779;DHT22;11556;51.194;3.800;2023-05-07T06:24:22;17.20;99.90
22779;DHT22;11556;51.194;3.800;2023-05-07T06:26:48;17.30;99.90
22779;DHT22;11556;51.194;3.800;2023-05-07T06:29:13;17.40;99.90
22779;DHT22;11556;51.194;3.800;2023-05-07T06:31:39;17.60;99.90
22779;DHT22;11556;51.194;3.800;2023-05-07T06:34:05;17.60;99.90
22779;DHT22;11556;51.194;3.800;2023-05-07T06:36:30;17.90;99.90
22779;DHT22;11556;51.194;3.800;2023-05-07T06:38:56;17.90;99.90
22779;DHT22;11556;51.194;3.800;2023-05-07T06:41:22;18.00;99.90
22779;DHT22;11556;51.194;3.800;2023-05-07T06:43:47;18.00;99.90
22779;DHT22;11556;51.194;3.800;2023-05-07T06:46:13;17.90;99.90
22779;DHT22;11556;51.194;3.800;2023-05-07T06:48:39;17.90;99.90
22779;DHT22;11556;51.194;3.800;2023-05-07T06:51:04;17.90;99.90
22779;DHT22;11556;51.194;3.800;2023-05-07T06:53:30;17.80;99.90
22779;DHT22;11556;51.194;3.800;2023-05-07T06:55:56;17.70;99.90
22779;DHT22;11556;51.194;3.800;2023-05-07T06:58:22;17.70;99.90
22779;DHT22;11556;51.194;3.800;2023-05-07T07:00:48;17.80;99.90
22779;DHT22;11556;51.194;3.800;2023-05-07T07:03:14;17.70;99.90
22779;DHT22;11556;51.194;3.800;2023-05-07T07:05:42;17.50;99.90
22779;DHT22;11556;51.194;3.800;2023-05-07T07:08:09;17.40;99.90
22779;DHT22;11556;51.194;3.800;2023-05-07T07:10:35;17.40;99.90
22779;DHT22;11556;51.194;3.800;2023-05-07T07:13:01;17.60;99.90
22779;DHT22;11556;51.194;3.800;2023-05-07T07:15:26;17.60;99.90
22779;DHT22;11556;51.194;3.800;2023-05-07T07:17:52;17.70;99.90
22779;DHT22;11556;51.194;3.800;2023-05-07T07:20:18;17.60;99.90
22779;DHT22;11556;51.194;3.800;2023-05-07T07:22:43;17.60;99.90
22779;DHT22;11556;51.194;3.800;2023-05-07T07:25:09;17.70;99.90
22779;DHT22;11556;51.194;3.800;2023-05-07T07:27:35;17.60;99.90
22779;DHT22;11556;51.194;3.800;2023-05-07T07:30:01;17.60;99.90
22779;DHT22;11556;51.194;3.800;2023-05-07T07:32:27;17.70;99.90
22779;DHT22;11556;51.194;3.800;2023-05-07T07:34:52;17.90;99.90
22779;DHT22;11556;51.194;3.800;2023-05-07T07:37:18;18.00;99.90
22779;DHT22;11556;51.194;3.800;2023-05-07T07:39:43;17.90;99.90
22779;DHT22;11556;51.194;3.800;2023-05-07T07:42:09;17.90;99.90
22779;DHT22;11556;51.194;3.800;2023-05-07T07:44:35;18.10;99.90
22779;DHT22;11556;51.194;3.800;2023-05-07T07:47:00;18.40;99.90
22779;DHT22;11556;51.194;3.800;2023-05-07T07:49:26;18.60;99.90
22779;DHT22;11556;51.194;3.800;2023-05-07T07:51:52;18.80;99.90
22779;DHT22;11556;51.194;3.800;2023-05-07T07:54:18;18.90;99.90
22779;DHT22;11556;51.194;3.800;2023-05-07T07:56:43;18.90;99.90
22779;DHT22;11556;51.194;3.800;2023-05-07T07:59:09;18.90;99.90
22779;DHT22;11556;51.194;3.800;2023-05-07T08:01:34;19.00;99.90
22779;DHT22;11556;51.194;3.800;2023-05-07T08:04:00;19.10;99.90
22779;DHT22;11556;51.194;3.800;2023-05-07T08:06:29;19.10;99.90
22779;DHT22;11556;51.194;3.800;2023-05-07T08:08:55;19.10;99.90
22779;DHT22;11556;51.194;3.800;2023-05-07T08:11:21;19.20;99.90
22779;DHT22;11556;51.194;3.800;2023-05-07T08:13:46;19.30;99.90
22779;DHT22;11556;51.194;3.800;2023-05-07T08:16:13;19.30;99.90
22779;DHT22;11556;51.194;3.800;2023-05-07T08:18:39;19.40;99.90
22779;DHT22;11556;51.194;3.800;2023-05-07T08:21:04;19.40;99.90
22779;DHT22;11556;51.194;3.800;2023-05-07T08:23:30;19.40;99.90
22779;DHT22;11556;51.194;3.800;2023-05-07T08:25:56;19.40;99.90
22779;DHT22;11556;51.194;3.800;2023-05-07T08:28:21;19.40;99.90
22779;DHT22;11556;51.194;3.800;2023-05-07T08:30:47;19.50;99.90
22779;DHT22;11556;51.194;3.800;2023-05-07T08:33:13;19.40;99.90
22779;DHT22;11556;51.194;3.800;2023-05-07T08:35:38;19.50;99.90
22779;DHT22;11556;51.194;3.800;2023-05-07T08:38:04;19.50;99.90
22779;DHT22;11556;51.194;3.800;2023-05-07T08:40:36;19.50;99.90
22779;DHT22;11556;51.194;3.800;2023-05-07T08:43:02;19.50;99.90
22779;DHT22;11556;51.194;3.800;2023-05-07T08:45:30;19.60;99.90
22779;DHT22;11556;51.194;3.800;2023-05-07T08:47:59;19.60;99.90
22779;DHT22;11556;51.194;3.800;2023-05-07T08:50:25;19.60;99.90
22779;DHT22;11556;51.194;3.800;2023-05-07T08:52:51;19.80;99.90
22779;DHT22;11556;51.194;3.800;2023-05-07T08:55:17;19.90;99.90
22779;DHT22;11556;51.194;3.800;2023-05-07T08:57:43;19.80;99.90
22779;DHT22;11556;51.194;3.800;2023-05-07T09:00:09;19.90;99.90
22779;DHT22;11556;51.194;3.800;2023-05-07T09:02:35;20.10;99.90
22779;DHT22;11556;51.194;3.800;2023-05-07T09:05:01;20.10;99.90
22779;DHT22;11556;51.194;3.800;2023-05-07T09:07:27;20.10;99.90
22779;DHT22;11556;51.194;3.800;2023-05-07T09:09:53;20.30;99.90
22779;DHT22;11556;51.194;3.800;2023-05-07T09:12:21;20.50;99.90
22779;DHT22;11556;51.194;3.800;2023-05-07T09:14:47;20.60;99.90
22779;DHT22;11556;51.194;3.800;2023-05-07T09:17:13;20.70;99.90
22779;DHT22;11556;51.194;3.800;2023-05-07T09:19:38;20.70;99.90
22779;DHT22;11556;51.194;3.800;2023-05-07T09:22:05;20.60;99.90
22779;DHT22;11556;51.194;3.800;2023-05-07T09:24:32;20.50;99.90
22779;DHT22;11556;51.194;3.800;2023-05-07T09:27:03;20.50;99.90
22779;DHT22;11556;51.194;3.800;2023-05-07T09:29:29;20.50;99.90
22779;DHT22;11556;51.194;3.800;2023-05-07T09:32:01;20.60;99.90
22779;DHT22;11556;51.194;3.800;2023-05-07T09:34:27;20.60;99.90
22779;DHT22;11556;51.194;3.800;2023-05-07T09:36:53;20.80;99.90
22779;DHT22;11556;51.194;3.800;2023-05-07T09:39:19;20.90;99.90
22779;DHT22;11556;51.194;3.800;2023-05-07T09:41:46;21.10;99.90
22779;DHT22;11556;51.194;3.800;2023-05-07T09:44:15;21.10;99.90
22779;DHT22;11556;51.194;3.800;2023-05-07T09:46:44;21.10;99.90
22779;DHT22;11556;51.194;3.800;2023-05-07T09:49:15;20.90;99.90
22779;DHT22;11556;51.194;3.800;2023-05-07T09:51:49;20.70;99.90
22779;DHT22;11556;51.194;3.800;2023-05-07T09:54:15;20.80;99.90
22779;DHT22;11556;51.194;3.800;2023-05-07T09:56:46;21.00;99.90
22779;DHT22;11556;51.194;3.800;2023-05-07T09:59:14;21.10;99.90
22779;DHT22;11556;51.194;3.800;2023-05-07T10:01:42;21.20;99.90
22779;DHT22;11556;51.194;3.800;2023-05-07T10:04:08;21.20;99.90
22779;DHT22;11556;51.194;3.800;2023-05-07T10:06:35;21.20;99.90
22779;DHT22;11556;51.194;3.800;2023-05-07T10:09:02;21.20;99.90
22779;DHT22;11556;51.194;3.800;2023-05-07T10:11:28;20.90;99.90
22779;DHT22;11556;51.194;3.800;2023-05-07T10:13:54;20.70;99.90
22779;DHT22;11556;51.194;3.800;2023-05-07T10:16:21;20.50;99.90
22779;DHT22;11556;51.194;3.800;2023-05-07T10:18:47;20.40;99.90
22779;DHT22;11556;51.194;3.800;2023-05-07T10:21:20;20.40;99.90
22779;DHT22;11556;51.194;3.800;2023-05-07T10:23:58;20.40;99.90
22779;DHT22;11556;51.194;3.800;2023-05-07T10:26:25;20.30;99.90
22779;DHT22;11556;51.194;3.800;2023-05-07T10:28:59;20.10;99.90
22779;DHT22;11556;51.194;3.800;2023-05-07T10:31:46;20.10;99.90
22779;DHT22;11556;51.194;3.800;2023-05-07T10:34:32;20.10;99.90
22779;DHT22;11556;51.194;3.800;2023-05-07T10:37:00;20.30;99.90
22779;DHT22;11556;51.194;3.800;2023-05-07T10:39:26;20.40;99.90
22779;DHT22;11556;51.194;3.800;2023-05-07T10:41:52;20.40;99.90
22779;DHT22;11556;51.194;3.800;2023-05-07T10:44:28;20.40;99.90
22779;DHT22;11556;51.194;3.800;2023-05-07T10:47:15;20.50;99.90
22779;DHT22;11556;51.194;3.800;2023-05-07T10:52:19;20.80;99.90
22779;DHT22;11556;51.194;3.800;2023-05-07T10:54:45;20.70;99.90
22779;DHT22;11556;51.194;3.800;2023-05-07T10:57:36;20.70;99.90
22779;DHT22;11556;51.194;3.800;2023-05-07T11:00:03;21.00;99.90
22779;DHT22;11556;51.194;3.800;2023-05-07T11:05:29;22.20;99.90
22779;DHT22;11556;51.194;3.800;2023-05-07T11:08:02;22.20;99.90
22779;DHT22;11556;51.194;3.800;2023-05-07T11:11:07;22.70;99.90
22779;DHT22;11556;51.194;3.800;2023-05-07T11:13:44;23.00;99.90
22779;DHT22;11556;51.194;3.800;2023-05-07T11:16:23;22.30;99.90
22779;DHT22;11556;51.194;3.800;2023-05-07T11:18:53;22.00;99.90
22779;DHT22;11556;51.194;3.800;2023-05-07T11:21:37;22.20;99.90
22779;DHT22;11556;51.194;3.800;2023-05-07T11:24:04;22.30;99.90
22779;DHT22;11556;51.194;3.800;2023-05-07T11:26:52;22.20;99.90
22779;DHT22;11556;51.194;3.800;2023-05-07T11:29:22;22.10;99.90
22779;DHT22;11556;51.194;3.800;2023-05-07T11:31:52;22.50;99.90
22779;DHT22;11556;51.194;3.800;2023-05-07T11:34:26;22.70;99.90
22779;DHT22;11556;51.194;3.800;2023-05-07T11:36:52;22.70;99.90
22779;DHT22;11556;51.194;3.800;2023-05-07T11:39:29;22.50;99.90
22779;DHT22;11556;51.194;3.800;2023-05-07T11:41:55;22.60;99.90
22779;DHT22;11556;51.194;3.800;2023-05-07T11:44:21;21.90;99.90
22779;DHT22;11556;51.194;3.800;2023-05-07T11:46:47;22.00;99.90
22779;DHT22;11556;51.194;3.800;2023-05-07T11:49:13;22.40;99.90
22779;DHT22;11556;51.194;3.800;2023-05-07T11:51:39;22.60;99.90
22779;DHT22;11556;51.194;3.800;2023-05-07T11:54:08;22.40;99.90
22779;DHT22;11556;51.194;3.800;2023-05-07T11:56:36;22.30;99.90
22779;DHT22;11556;51.194;3.800;2023-05-07T11:59:02;22.50;99.90
22779;DHT22;11556;51.194;3.800;2023-05-07T12:01:28;22.50;99.90
22779;DHT22;11556;51.194;3.800;2023-05-07T12:03:53;22.40;99.90
22779;DHT22;11556;51.194;3.800;2023-05-07T12:06:19;22.50;99.90
22779;DHT22;11556;51.194;3.800;2023-05-07T12:08:45;22.50;99.90
22779;DHT22;11556;51.194;3.800;2023-05-07T12:11:23;22.00;99.90
22779;DHT22;11556;51.194;3.800;2023-05-07T12:13:49;22.30;99.90
22779;DHT22;11556;51.194;3.800;2023-05-07T12:16:15;22.60;99.90
22779;DHT22;11556;51.194;3.800;2023-05-07T12:18:41;23.00;99.90
22779;DHT22;11556;51.194;3.800;2023-05-07T12:21:07;23.30;99.90
22779;DHT22;11556;51.194;3.800;2023-05-07T12:23:37;23.20;99.90
22779;DHT22;11556;51.194;3.800;2023-05-07T12:26:03;23.00;99.90
22779;DHT22;11556;51.194;3.800;2023-05-07T12:28:29;22.60;99.90
22779;DHT22;11556;51.194;3.800;2023-05-07T12:30:56;22.60;99.90
22779;DHT22;11556;51.194;3.800;2023-05-07T12:33:26;22.60;99.90
22779;DHT22;11556;51.194;3.800;2023-05-07T12:35:55;22.60;99.90
22779;DHT22;11556;51.194;3.800;2023-05-07T12:38:22;22.80;99.90
22779;DHT22;11556;51.194;3.800;2023-05-07T12:40:50;22.90;99.90
22779;DHT22;11556;51.194;3.800;2023-05-07T12:43:26;23.00;99.90
22779;DHT22;11556;51.194;3.800;2023-05-07T12:45:54;22.50;99.90
22779;DHT22;11556;51.194;3.800;2023-05-07T12:48:21;21.90;99.90
22779;DHT22;11556;51.194;3.800;2023-05-07T12:50:51;21.40;99.90
22779;DHT22;11556;51.194;3.800;2023-05-07T12:53:19;21.40;99.90
22779;DHT22;11556;51.194;3.800;2023-05-07T12:55:47;21.50;99.90
22779;DHT22;11556;51.194;3.800;2023-05-07T12:58:28;21.50;99.90
22779;DHT22;11556;51.194;3.800;2023-05-07T13:00:55;21.80;99.90
22779;DHT22;11556;51.194;3.800;2023-05-07T13:03:30;22.10;99.90
22779;DHT22;11556;51.194;3.800;2023-05-07T13:05:58;22.10;99.90
22779;DHT22;11556;51.194;3.800;2023-05-07T13:10:58;22.30;99.90
22779;DHT22;11556;51.194;3.800;2023-05-07T13:13:25;22.40;99.90
22779;DHT22;11556;51.194;3.800;2023-05-07T13:15:51;22.40;99.90
22779;DHT22;11556;51.194;3.800;2023-05-07T13:18:17;22.60;99.90
22779;DHT22;11556;51.194;3.800;2023-05-07T13:20:42;22.30;99.90
22779;DHT22;11556;51.194;3.800;2023-05-07T13:23:08;22.10;99.90
22779;DHT22;11556;51.194;3.800;2023-05-07T13:25:34;21.90;99.90
22779;DHT22;11556;51.194;3.800;2023-05-07T13:28:00;21.60;99.90
22779;DHT22;11556;51.194;3.800;2023-05-07T13:30:25;21.30;99.90
22779;DHT22;11556;51.194;3.800;2023-05-07T13:32:53;21.00;99.90
22779;DHT22;11556;51.194;3.800;2023-05-07T13:35:19;20.80;99.90
22779;DHT22;11556;51.194;3.800;2023-05-07T13:37:44;20.60;99.90
22779;DHT22;11556;51.194;3.800;2023-05-07T13:40:10;20.70;99.90
22779;DHT22;11556;51.194;3.800;2023-05-07T13:42:36;20.70;99.90
22779;DHT22;11556;51.194;3.800;2023-05-07T13:45:02;20.50;99.90
22779;DHT22;11556;51.194;3.800;2023-05-07T13:47:30;20.70;99.90
22779;DHT22;11556;51.194;3.800;2023-05-07T13:49:56;20.80;99.90
22779;DHT22;11556;51.194;3.800;2023-05-07T13:52:21;21.10;99.90
22779;DHT22;11556;51.194;3.800;2023-05-07T13:54:47;21.20;99.90
22779;DHT22;11556;51.194;3.800;2023-05-07T13:57:13;20.80;99.90
22779;DHT22;11556;51.194;3.800;2023-05-07T13:59:38;20.30;99.90
22779;DHT22;11556;51.194;3.800;2023-05-07T14:02:04;20.00;99.90
22779;DHT22;11556;51.194;3.800;2023-05-07T14:04:30;19.90;99.90
22779;DHT22;11556;51.194;3.800;2023-05-07T14:06:56;19.80;99.90
22779;DHT22;11556;51.194;3.800;2023-05-07T14:09:22;19.70;99.90
22779;DHT22;11556;51.194;3.800;2023-05-07T14:11:47;19.60;99.90
22779;DHT22;11556;51.194;3.800;2023-05-07T14:14:17;19.50;99.90
22779;DHT22;11556;51.194;3.800;2023-05-07T14:16:42;19.60;99.90
22779;DHT22;11556;51.194;3.800;2023-05-07T14:19:08;19.70;99.90
22779;DHT22;11556;51.194;3.800;2023-05-07T14:21:34;19.90;99.90
22779;DHT22;11556;51.194;3.800;2023-05-07T14:23:59;20.10;99.90
22779;DHT22;11556;51.194;3.800;2023-05-07T14:26:25;20.00;99.90
22779;DHT22;11556;51.194;3.800;2023-05-07T14:28:53;19.80;99.90
22779;DHT22;11556;51.194;3.800;2023-05-07T14:31:20;19.70;99.90
22779;DHT22;11556;51.194;3.800;2023-05-07T14:33:46;19.60;99.90
22779;DHT22;11556;51.194;3.800;2023-05-07T14:36:12;19.50;99.90
22779;DHT22;11556;51.194;3.800;2023-05-07T14:38:37;19.70;99.90
22779;DHT22;11556;51.194;3.800;2023-05-07T14:41:03;19.90;99.90
22779;DHT22;11556;51.194;3.800;2023-05-07T14:43:29;20.00;99.90
22779;DHT22;11556;51.194;3.800;2023-05-07T14:45:55;20.30;99.90
22779;DHT22;11556;51.194;3.800;2023-05-07T14:48:20;20.60;99.90
22779;DHT22;11556;51.194;3.800;2023-05-07T14:50:49;20.50;99.90
22779;DHT22;11556;51.194;3.800;2023-05-07T14:53:15;20.60;99.90
22779;DHT22;11556;51.194;3.800;2023-05-07T14:55:41;20.60;99.90
22779;DHT22;11556;51.194;3.800;2023-05-07T14:58:06;20.50;99.90
22779;DHT22;11556;51.194;3.800;2023-05-07T15:00:33;20.60;99.90
22779;DHT22;11556;51.194;3.800;2023-05-07T15:03:05;21.10;99.90
22779;DHT22;11556;51.194;3.800;2023-05-07T15:05:32;21.20;99.90
22779;DHT22;11556;51.194;3.800;2023-05-07T15:07:58;21.20;99.90
22779;DHT22;11556;51.194;3.800;2023-05-07T15:10:24;21.10;99.90
22779;DHT22;11556;51.194;3.800;2023-05-07T15:12:49;21.20;99.90
22779;DHT22;11556;51.194;3.800;2023-05-07T15:15:15;21.40;99.90
22779;DHT22;11556;51.194;3.800;2023-05-07T15:17:41;21.80;99.90
22779;DHT22;11556;51.194;3.800;2023-05-07T15:20:07;22.00;99.90
22779;DHT22;11556;51.194;3.800;2023-05-07T15:22:33;21.90;99.90
22779;DHT22;11556;51.194;3.800;2023-05-07T15:24:59;21.50;99.90
22779;DHT22;11556;51.194;3.800;2023-05-07T15:27:25;21.20;99.90
22779;DHT22;11556;51.194;3.800;2023-05-07T15:29:51;21.10;99.90
22779;DHT22;11556;51.194;3.800;2023-05-07T15:32:17;21.20;99.90
22779;DHT22;11556;51.194;3.800;2023-05-07T15:34:43;21.50;99.90
22779;DHT22;11556;51.194;3.800;2023-05-07T15:37:08;21.70;99.90